Mc Neill, Mississippi
Current Conditions -  °F | °C
As of 11:15 PM on Sunday 19 Oct 2014 (Local Time) from KBXA Reporting Station
NA  
Wind Chill: 52°   Ceiling: NA
Heat Index: 52°   Visibility: 10mi
Dew Point: 49°   Wind: 0mph
Humidity: 89%   Direction: NA
Pressure: 30.1"   Gusts: NA
Location:  30.6637°N, 89.6342°W
Report Text: KBXA 200415Z AUTO 00000KT 10SM 11/09 A3010 RMK AO2 T01100092
Loading
Personal Weather Stations






























Interactive Weather Map
Tropical Storm Tracking
New forecast layout! Learn more

10-Day Weather Forecast

Advertisements
Track Severe Weather on mobile